Austin, Texas
Traffic Map
Current Weather Conditions
Austin, Texas
Clear
Clear
31°
Feels Like: 34°
Wind Chill: 31° Ceiling: Unl
Heat Index: 34° Visibility: 10mi
Dew Point: 22° Wind: 10mph
Humidity: 61% Direction: 140° (SE)
Pressure: 29.9in Gusts: 21mph
Raw Report DataKATT 240351Z AUTO 14009G18KT 10SM CLR 31/22 A2990 RMK AO2 SLP108 T03060222
Traffic Incident Summary
Active as of:
Severity:
Category:
InformationThere was an issue retrieving the traffic information for this location. Please try a different location or try again shortly.
Advertisements
Track Severe Weather on mobile